sensor_id;sensor_type;location;lat;lon;timestamp;temperature;humidity
75010;DHT22;63564;46.840;18.336;2023-05-27T00:00:47;17.45;78.69
75010;DHT22;63564;46.840;18.336;2023-05-27T00:03:47;17.42;78.49
75010;DHT22;63564;46.840;18.336;2023-05-27T00:06:47;17.49;77.85
75010;DHT22;63564;46.840;18.336;2023-05-27T00:09:48;17.37;78.43
75010;DHT22;63564;46.840;18.336;2023-05-27T00:12:48;17.38;78.57
75010;DHT22;63564;46.840;18.336;2023-05-27T00:15:49;17.24;79.19
75010;DHT22;63564;46.840;18.336;2023-05-27T00:18:49;17.17;79.66
75010;DHT22;63564;46.840;18.336;2023-05-27T00:21:50;17.10;80.03
75010;DHT22;63564;46.840;18.336;2023-05-27T00:24:54;17.03;80.35
75010;DHT22;63564;46.840;18.336;2023-05-27T00:27:56;17.00;80.22
75010;DHT22;63564;46.840;18.336;2023-05-27T00:30:57;17.03;80.09
75010;DHT22;63564;46.840;18.336;2023-05-27T00:33:57;16.93;80.57
75010;DHT22;63564;46.840;18.336;2023-05-27T00:36:58;16.93;80.29
75010;DHT22;63564;46.840;18.336;2023-05-27T00:39:58;16.90;80.20
75010;DHT22;63564;46.840;18.336;2023-05-27T00:42:58;16.89;80.41
75010;DHT22;63564;46.840;18.336;2023-05-27T00:45:59;16.73;81.23
75010;DHT22;63564;46.840;18.336;2023-05-27T00:48:59;16.79;81.23
75010;DHT22;63564;46.840;18.336;2023-05-27T00:52:00;16.75;80.95
75010;DHT22;63564;46.840;18.336;2023-05-27T00:55:00;16.71;80.61
75010;DHT22;63564;46.840;18.336;2023-05-27T00:58:01;16.65;80.92
75010;DHT22;63564;46.840;18.336;2023-05-27T01:01:04;16.49;81.59
75010;DHT22;63564;46.840;18.336;2023-05-27T01:04:05;16.35;82.13
75010;DHT22;63564;46.840;18.336;2023-05-27T01:13:39;16.08;83.84
75010;DHT22;63564;46.840;18.336;2023-05-27T01:16:43;15.99;84.26
75010;DHT22;63564;46.840;18.336;2023-05-27T01:19:45;15.67;85.94
75010;DHT22;63564;46.840;18.336;2023-05-27T01:22:45;15.76;85.73
75010;DHT22;63564;46.840;18.336;2023-05-27T01:25:47;15.78;84.62
75010;DHT22;63564;46.840;18.336;2023-05-27T01:28:47;15.74;84.27
75010;DHT22;63564;46.840;18.336;2023-05-27T01:32:25;15.78;84.07
75010;DHT22;63564;46.840;18.336;2023-05-27T01:35:30;15.74;84.64
75010;DHT22;63564;46.840;18.336;2023-05-27T01:38:32;15.36;86.88
75010;DHT22;63564;46.840;18.336;2023-05-27T01:41:33;15.28;86.53
75010;DHT22;63564;46.840;18.336;2023-05-27T01:44:34;15.14;87.58
75010;DHT22;63564;46.840;18.336;2023-05-27T01:47:35;14.97;88.67
75010;DHT22;63564;46.840;18.336;2023-05-27T01:50:36;14.97;88.58
75010;DHT22;63564;46.840;18.336;2023-05-27T01:53:36;14.90;89.89
75010;DHT22;63564;46.840;18.336;2023-05-27T01:56:37;14.75;90.68
75010;DHT22;63564;46.840;18.336;2023-05-27T01:59:37;14.72;90.42
75010;DHT22;63564;46.840;18.336;2023-05-27T02:02:38;14.72;90.36
75010;DHT22;63564;46.840;18.336;2023-05-27T02:05:38;14.84;89.23
75010;DHT22;63564;46.840;18.336;2023-05-27T02:08:38;14.72;89.57
75010;DHT22;63564;46.840;18.336;2023-05-27T02:11:39;14.69;89.30
75010;DHT22;63564;46.840;18.336;2023-05-27T02:14:39;14.70;89.59
75010;DHT22;63564;46.840;18.336;2023-05-27T02:17:41;14.76;88.94
75010;DHT22;63564;46.840;18.336;2023-05-27T02:20:45;14.80;88.30
75010;DHT22;63564;46.840;18.336;2023-05-27T02:23:45;14.75;88.37
75010;DHT22;63564;46.840;18.336;2023-05-27T02:26:45;14.69;88.90
75010;DHT22;63564;46.840;18.336;2023-05-27T02:29:46;14.26;91.94
75010;DHT22;63564;46.840;18.336;2023-05-27T02:32:46;13.85;93.78
75010;DHT22;63564;46.840;18.336;2023-05-27T02:35:47;13.78;94.18
75010;DHT22;63564;46.840;18.336;2023-05-27T02:38:47;13.88;93.29
75010;DHT22;63564;46.840;18.336;2023-05-27T02:41:47;13.91;92.84
75010;DHT22;63564;46.840;18.336;2023-05-27T02:44:48;13.95;92.79
75010;DHT22;63564;46.840;18.336;2023-05-27T02:47:48;13.92;93.08
75010;DHT22;63564;46.840;18.336;2023-05-27T02:50:48;13.98;92.10
75010;DHT22;63564;46.840;18.336;2023-05-27T02:53:50;14.00;92.81
75010;DHT22;63564;46.840;18.336;2023-05-27T02:56:50;14.00;92.37
75010;DHT22;63564;46.840;18.336;2023-05-27T02:59:50;13.94;92.55
75010;DHT22;63564;46.840;18.336;2023-05-27T03:02:51;14.01;92.26
75010;DHT22;63564;46.840;18.336;2023-05-27T03:05:51;13.97;92.33
75010;DHT22;63564;46.840;18.336;2023-05-27T03:08:52;13.87;92.95
75010;DHT22;63564;46.840;18.336;2023-05-27T03:11:52;13.73;93.77
75010;DHT22;63564;46.840;18.336;2023-05-27T03:14:52;13.71;93.71
75010;DHT22;63564;46.840;18.336;2023-05-27T03:17:53;13.71;93.49
75010;DHT22;63564;46.840;18.336;2023-05-27T03:20:53;13.77;92.57
75010;DHT22;63564;46.840;18.336;2023-05-27T03:23:53;13.90;91.58
75010;DHT22;63564;46.840;18.336;2023-05-27T03:26:54;14.01;90.90
75010;DHT22;63564;46.840;18.336;2023-05-27T03:29:54;14.08;90.85
75010;DHT22;63564;46.840;18.336;2023-05-27T03:32:55;14.09;90.51
75010;DHT22;63564;46.840;18.336;2023-05-27T03:35:55;14.12;90.73
75010;DHT22;63564;46.840;18.336;2023-05-27T03:38:56;14.15;90.37
75010;DHT22;63564;46.840;18.336;2023-05-27T03:41:57;14.08;92.72
75010;DHT22;63564;46.840;18.336;2023-05-27T03:44:58;14.04;92.03
75010;DHT22;63564;46.840;18.336;2023-05-27T03:47:58;14.26;91.86
75010;DHT22;63564;46.840;18.336;2023-05-27T03:50:58;14.43;90.84
75010;DHT22;63564;46.840;18.336;2023-05-27T03:53:59;14.57;90.22
75010;DHT22;63564;46.840;18.336;2023-05-27T03:56:59;14.57;89.89
75010;DHT22;63564;46.840;18.336;2023-05-27T04:00:00;14.53;90.15
75010;DHT22;63564;46.840;18.336;2023-05-27T04:03:00;14.56;89.88
75010;DHT22;63564;46.840;18.336;2023-05-27T04:06:01;14.55;89.66
75010;DHT22;63564;46.840;18.336;2023-05-27T04:09:01;14.52;90.07
75010;DHT22;63564;46.840;18.336;2023-05-27T04:12:03;14.56;89.62
75010;DHT22;63564;46.840;18.336;2023-05-27T04:15:04;14.56;89.99
75010;DHT22;63564;46.840;18.336;2023-05-27T04:18:05;14.53;90.13
75010;DHT22;63564;46.840;18.336;2023-05-27T04:21:06;14.52;90.60
75010;DHT22;63564;46.840;18.336;2023-05-27T04:24:08;14.53;90.32
75010;DHT22;63564;46.840;18.336;2023-05-27T04:27:08;14.49;91.56
75010;DHT22;63564;46.840;18.336;2023-05-27T04:30:10;14.49;91.43
75010;DHT22;63564;46.840;18.336;2023-05-27T04:33:10;14.65;90.55
75010;DHT22;63564;46.840;18.336;2023-05-27T04:36:11;14.76;90.59
75010;DHT22;63564;46.840;18.336;2023-05-27T04:39:12;14.84;90.40
75010;DHT22;63564;46.840;18.336;2023-05-27T04:42:12;14.86;90.71
75010;DHT22;63564;46.840;18.336;2023-05-27T04:45:15;14.87;90.46
75010;DHT22;63564;46.840;18.336;2023-05-27T04:48:16;14.77;90.61
75010;DHT22;63564;46.840;18.336;2023-05-27T04:51:16;14.72;92.00
75010;DHT22;63564;46.840;18.336;2023-05-27T04:54:17;14.79;92.13
75010;DHT22;63564;46.840;18.336;2023-05-27T04:57:18;14.84;91.78
75010;DHT22;63564;46.840;18.336;2023-05-27T05:00:19;14.91;90.64
75010;DHT22;63564;46.840;18.336;2023-05-27T05:03:36;15.05;90.58
75010;DHT22;63564;46.840;18.336;2023-05-27T05:06:50;15.18;89.76
75010;DHT22;63564;46.840;18.336;2023-05-27T05:09:52;15.27;89.29
75010;DHT22;63564;46.840;18.336;2023-05-27T05:12:52;15.49;88.38
75010;DHT22;63564;46.840;18.336;2023-05-27T05:15:53;15.48;88.12
75010;DHT22;63564;46.840;18.336;2023-05-27T05:18:54;15.69;87.06
75010;DHT22;63564;46.840;18.336;2023-05-27T05:21:54;15.82;87.19
75010;DHT22;63564;46.840;18.336;2023-05-27T05:24:55;16.11;85.94
75010;DHT22;63564;46.840;18.336;2023-05-27T05:27:56;16.58;85.05
75010;DHT22;63564;46.840;18.336;2023-05-27T05:30:56;16.75;84.63
75010;DHT22;63564;46.840;18.336;2023-05-27T05:33:56;17.14;84.07
75010;DHT22;63564;46.840;18.336;2023-05-27T05:36:57;17.42;82.65
75010;DHT22;63564;46.840;18.336;2023-05-27T05:39:57;17.76;81.25
75010;DHT22;63564;46.840;18.336;2023-05-27T05:42:58;17.82;82.53
75010;DHT22;63564;46.840;18.336;2023-05-27T05:45:58;17.97;80.83
75010;DHT22;63564;46.840;18.336;2023-05-27T05:49:00;18.07;79.98
75010;DHT22;63564;46.840;18.336;2023-05-27T05:52:00;18.33;77.55
75010;DHT22;63564;46.840;18.336;2023-05-27T05:55:01;18.43;79.05
75010;DHT22;63564;46.840;18.336;2023-05-27T05:58:01;18.45;79.48
75010;DHT22;63564;46.840;18.336;2023-05-27T06:01:02;18.60;77.60
75010;DHT22;63564;46.840;18.336;2023-05-27T06:04:03;18.62;79.01
75010;DHT22;63564;46.840;18.336;2023-05-27T06:07:04;18.13;80.95
75010;DHT22;63564;46.840;18.336;2023-05-27T06:10:05;18.32;80.96
75010;DHT22;63564;46.840;18.336;2023-05-27T06:13:05;18.72;76.25
75010;DHT22;63564;46.840;18.336;2023-05-27T06:16:06;18.79;73.93
75010;DHT22;63564;46.840;18.336;2023-05-27T06:19:06;18.65;75.70
75010;DHT22;63564;46.840;18.336;2023-05-27T06:22:07;18.72;73.63
75010;DHT22;63564;46.840;18.336;2023-05-27T06:25:07;18.87;75.27
75010;DHT22;63564;46.840;18.336;2023-05-27T06:28:08;18.96;76.33
75010;DHT22;63564;46.840;18.336;2023-05-27T06:31:08;19.08;73.28
75010;DHT22;63564;46.840;18.336;2023-05-27T06:34:09;19.09;74.44
75010;DHT22;63564;46.840;18.336;2023-05-27T06:37:09;19.18;72.56
75010;DHT22;63564;46.840;18.336;2023-05-27T06:40:10;19.33;72.67
75010;DHT22;63564;46.840;18.336;2023-05-27T06:43:11;19.40;71.57
75010;DHT22;63564;46.840;18.336;2023-05-27T06:46:11;19.45;70.98
75010;DHT22;63564;46.840;18.336;2023-05-27T06:49:11;19.64;70.43
75010;DHT22;63564;46.840;18.336;2023-05-27T06:52:12;19.70;70.86
75010;DHT22;63564;46.840;18.336;2023-05-27T06:55:12;20.18;69.17
75010;DHT22;63564;46.840;18.336;2023-05-27T06:58:13;20.57;67.73
75010;DHT22;63564;46.840;18.336;2023-05-27T07:01:13;20.81;69.01
75010;DHT22;63564;46.840;18.336;2023-05-27T07:04:14;20.78;66.53
75010;DHT22;63564;46.840;18.336;2023-05-27T07:07:15;20.54;69.49
75010;DHT22;63564;46.840;18.336;2023-05-27T07:10:16;20.98;65.44
75010;DHT22;63564;46.840;18.336;2023-05-27T07:13:16;21.09;66.81
75010;DHT22;63564;46.840;18.336;2023-05-27T07:16:17;20.97;67.62
75010;DHT22;63564;46.840;18.336;2023-05-27T07:19:17;20.98;67.25
75010;DHT22;63564;46.840;18.336;2023-05-27T07:22:17;21.22;66.85
75010;DHT22;63564;46.840;18.336;2023-05-27T07:25:18;21.43;65.75
75010;DHT22;63564;46.840;18.336;2023-05-27T07:28:18;21.66;66.92
75010;DHT22;63564;46.840;18.336;2023-05-27T07:31:19;21.77;64.71
75010;DHT22;63564;46.840;18.336;2023-05-27T07:34:19;21.83;64.34
75010;DHT22;63564;46.840;18.336;2023-05-27T07:37:22;21.66;67.23
75010;DHT22;63564;46.840;18.336;2023-05-27T07:40:23;21.97;64.81
75010;DHT22;63564;46.840;18.336;2023-05-27T07:43:24;22.24;63.68
75010;DHT22;63564;46.840;18.336;2023-05-27T07:46:24;22.07;65.96
75010;DHT22;63564;46.840;18.336;2023-05-27T07:49:25;22.38;63.56
75010;DHT22;63564;46.840;18.336;2023-05-27T07:52:25;21.74;65.32
75010;DHT22;63564;46.840;18.336;2023-05-27T07:55:26;22.17;63.86
75010;DHT22;63564;46.840;18.336;2023-05-27T07:58:26;21.62;65.54
75010;DHT22;63564;46.840;18.336;2023-05-27T08:01:26;21.77;64.20
75010;DHT22;63564;46.840;18.336;2023-05-27T08:04:31;21.70;64.62
75010;DHT22;63564;46.840;18.336;2023-05-27T08:07:32;21.45;65.44
75010;DHT22;63564;46.840;18.336;2023-05-27T08:10:32;21.56;67.57
75010;DHT22;63564;46.840;18.336;2023-05-27T08:13:33;21.84;66.23
75010;DHT22;63564;46.840;18.336;2023-05-27T08:16:33;22.04;64.44
75010;DHT22;63564;46.840;18.336;2023-05-27T08:19:33;21.81;65.06
75010;DHT22;63564;46.840;18.336;2023-05-27T08:22:34;21.97;66.57
75010;DHT22;63564;46.840;18.336;2023-05-27T08:25:34;22.22;63.80
75010;DHT22;63564;46.840;18.336;2023-05-27T08:28:35;22.62;62.62
75010;DHT22;63564;46.840;18.336;2023-05-27T08:31:37;22.55;62.30
75010;DHT22;63564;46.840;18.336;2023-05-27T08:34:38;22.44;64.53
75010;DHT22;63564;46.840;18.336;2023-05-27T08:37:39;22.58;62.44
75010;DHT22;63564;46.840;18.336;2023-05-27T08:40:39;22.53;63.40
75010;DHT22;63564;46.840;18.336;2023-05-27T08:43:41;22.79;59.97
75010;DHT22;63564;46.840;18.336;2023-05-27T08:46:41;22.51;61.95
75010;DHT22;63564;46.840;18.336;2023-05-27T08:49:42;22.42;63.12
75010;DHT22;63564;46.840;18.336;2023-05-27T08:52:46;22.55;61.18
75010;DHT22;63564;46.840;18.336;2023-05-27T08:55:50;22.72;61.13
75010;DHT22;63564;46.840;18.336;2023-05-27T08:58:51;22.27;63.65
75010;DHT22;63564;46.840;18.336;2023-05-27T09:01:55;22.93;62.23
75010;DHT22;63564;46.840;18.336;2023-05-27T09:04:56;23.11;61.14
75010;DHT22;63564;46.840;18.336;2023-05-27T09:07:56;22.27;63.56
75010;DHT22;63564;46.840;18.336;2023-05-27T09:10:57;22.17;63.36
75010;DHT22;63564;46.840;18.336;2023-05-27T09:13:57;22.02;64.49
75010;DHT22;63564;46.840;18.336;2023-05-27T09:17:04;22.32;64.93
75010;DHT22;63564;46.840;18.336;2023-05-27T09:20:05;22.45;63.56
75010;DHT22;63564;46.840;18.336;2023-05-27T09:23:07;22.24;64.38
75010;DHT22;63564;46.840;18.336;2023-05-27T09:26:09;22.55;62.61
75010;DHT22;63564;46.840;18.336;2023-05-27T09:29:10;22.66;63.98
75010;DHT22;63564;46.840;18.336;2023-05-27T09:32:11;22.49;63.89
75010;DHT22;63564;46.840;18.336;2023-05-27T09:35:12;22.38;64.08
75010;DHT22;63564;46.840;18.336;2023-05-27T09:38:13;22.87;62.30
75010;DHT22;63564;46.840;18.336;2023-05-27T09:41:13;23.66;60.59
75010;DHT22;63564;46.840;18.336;2023-05-27T09:44:14;23.95;58.86
75010;DHT22;63564;46.840;18.336;2023-05-27T09:47:16;23.32;61.43
75010;DHT22;63564;46.840;18.336;2023-05-27T09:50:17;23.57;61.65
75010;DHT22;63564;46.840;18.336;2023-05-27T09:53:20;23.42;60.59
75010;DHT22;63564;46.840;18.336;2023-05-27T09:56:24;23.57;59.22
75010;DHT22;63564;46.840;18.336;2023-05-27T09:59:26;23.30;61.85
75010;DHT22;63564;46.840;18.336;2023-05-27T10:02:27;23.41;61.18
75010;DHT22;63564;46.840;18.336;2023-05-27T10:05:30;23.59;60.31
75010;DHT22;63564;46.840;18.336;2023-05-27T10:08:30;23.42;59.61
75010;DHT22;63564;46.840;18.336;2023-05-27T10:11:32;23.45;62.98
75010;DHT22;63564;46.840;18.336;2023-05-27T10:14:35;23.89;58.57
75010;DHT22;63564;46.840;18.336;2023-05-27T10:17:52;23.83;59.13
75010;DHT22;63564;46.840;18.336;2023-05-27T10:20:53;23.38;61.47
75010;DHT22;63564;46.840;18.336;2023-05-27T10:24:02;23.37;60.13
75010;DHT22;63564;46.840;18.336;2023-05-27T10:27:03;23.34;61.99
75010;DHT22;63564;46.840;18.336;2023-05-27T10:30:04;23.35;59.87
75010;DHT22;63564;46.840;18.336;2023-05-27T10:33:04;23.90;58.80
75010;DHT22;63564;46.840;18.336;2023-05-27T10:39:15;23.86;57.56
75010;DHT22;63564;46.840;18.336;2023-05-27T10:42:21;23.68;59.38
75010;DHT22;63564;46.840;18.336;2023-05-27T10:45:31;23.62;59.34
75010;DHT22;63564;46.840;18.336;2023-05-27T10:48:31;23.32;60.11
75010;DHT22;63564;46.840;18.336;2023-05-27T10:51:34;23.27;59.76
75010;DHT22;63564;46.840;18.336;2023-05-27T10:54:34;22.94;61.03
75010;DHT22;63564;46.840;18.336;2023-05-27T10:57:36;22.99;62.79
75010;DHT22;63564;46.840;18.336;2023-05-27T11:00:37;22.85;63.43
75010;DHT22;63564;46.840;18.336;2023-05-27T11:03:45;22.79;61.57
75010;DHT22;63564;46.840;18.336;2023-05-27T11:07:01;22.90;62.67
75010;DHT22;63564;46.840;18.336;2023-05-27T11:10:02;23.20;59.84
75010;DHT22;63564;46.840;18.336;2023-05-27T11:13:04;22.72;60.93
75010;DHT22;63564;46.840;18.336;2023-05-27T11:16:06;23.02;60.85
75010;DHT22;63564;46.840;18.336;2023-05-27T11:19:11;22.97;60.75
75010;DHT22;63564;46.840;18.336;2023-05-27T11:22:13;22.89;65.11
75010;DHT22;63564;46.840;18.336;2023-05-27T11:25:14;23.61;61.53
75010;DHT22;63564;46.840;18.336;2023-05-27T11:28:17;23.89;60.01
75010;DHT22;63564;46.840;18.336;2023-05-27T11:31:18;23.90;57.62
75010;DHT22;63564;46.840;18.336;2023-05-27T11:34:20;23.79;58.58
75010;DHT22;63564;46.840;18.336;2023-05-27T11:37:20;24.58;55.46
75010;DHT22;63564;46.840;18.336;2023-05-27T11:40:21;25.08;55.81
75010;DHT22;63564;46.840;18.336;2023-05-27T11:43:21;24.58;54.31
75010;DHT22;63564;46.840;18.336;2023-05-27T11:46:22;24.24;56.28
75010;DHT22;63564;46.840;18.336;2023-05-27T11:49:23;23.88;58.47
75010;DHT22;63564;46.840;18.336;2023-05-27T11:52:26;23.88;57.65
75010;DHT22;63564;46.840;18.336;2023-05-27T11:55:29;23.92;56.51
75010;DHT22;63564;46.840;18.336;2023-05-27T11:58:30;24.33;56.11
75010;DHT22;63564;46.840;18.336;2023-05-27T12:01:30;24.44;55.54
75010;DHT22;63564;46.840;18.336;2023-05-27T12:04:31;24.38;56.40
75010;DHT22;63564;46.840;18.336;2023-05-27T12:07:31;24.53;56.73
75010;DHT22;63564;46.840;18.336;2023-05-27T12:10:31;24.06;59.50
75010;DHT22;63564;46.840;18.336;2023-05-27T12:13:32;24.17;56.49
75010;DHT22;63564;46.840;18.336;2023-05-27T12:16:32;24.91;54.59
75010;DHT22;63564;46.840;18.336;2023-05-27T12:19:33;25.40;53.89
75010;DHT22;63564;46.840;18.336;2023-05-27T12:22:34;24.82;55.58
75010;DHT22;63564;46.840;18.336;2023-05-27T12:25:35;25.77;53.54
75010;DHT22;63564;46.840;18.336;2023-05-27T12:28:36;26.09;52.69
75010;DHT22;63564;46.840;18.336;2023-05-27T12:31:36;26.90;49.27
75010;DHT22;63564;46.840;18.336;2023-05-27T12:34:37;26.28;51.28
75010;DHT22;63564;46.840;18.336;2023-05-27T12:37:38;26.49;50.72
75010;DHT22;63564;46.840;18.336;2023-05-27T12:40:38;24.65;53.85
75010;DHT22;63564;46.840;18.336;2023-05-27T12:43:38;26.12;50.90
75010;DHT22;63564;46.840;18.336;2023-05-27T12:46:39;26.81;48.51
75010;DHT22;63564;46.840;18.336;2023-05-27T12:49:39;26.90;49.65
75010;DHT22;63564;46.840;18.336;2023-05-27T12:52:40;25.47;52.70
75010;DHT22;63564;46.840;18.336;2023-05-27T12:55:46;25.15;53.38
75010;DHT22;63564;46.840;18.336;2023-05-27T12:58:46;24.81;54.08
75010;DHT22;63564;46.840;18.336;2023-05-27T13:01:47;25.70;52.36
75010;DHT22;63564;46.840;18.336;2023-05-27T13:04:47;26.73;49.40
75010;DHT22;63564;46.840;18.336;2023-05-27T13:07:59;26.36;50.61
75010;DHT22;63564;46.840;18.336;2023-05-27T13:11:00;27.19;51.34
75010;DHT22;63564;46.840;18.336;2023-05-27T13:14:00;25.92;50.35
75010;DHT22;63564;46.840;18.336;2023-05-27T13:17:00;25.22;51.33
75010;DHT22;63564;46.840;18.336;2023-05-27T13:20:02;27.77;45.55
75010;DHT22;63564;46.840;18.336;2023-05-27T13:23:03;26.05;48.42
75010;DHT22;63564;46.840;18.336;2023-05-27T13:26:03;25.54;51.77
75010;DHT22;63564;46.840;18.336;2023-05-27T13:29:05;27.16;45.31
75010;DHT22;63564;46.840;18.336;2023-05-27T13:32:06;28.90;41.77
75010;DHT22;63564;46.840;18.336;2023-05-27T13:35:08;28.42;42.98
75010;DHT22;63564;46.840;18.336;2023-05-27T13:38:08;30.34;39.09
75010;DHT22;63564;46.840;18.336;2023-05-27T13:41:13;29.95;39.21
75010;DHT22;63564;46.840;18.336;2023-05-27T13:44:14;29.68;40.82
75010;DHT22;63564;46.840;18.336;2023-05-27T13:47:15;30.06;39.32
75010;DHT22;63564;46.840;18.336;2023-05-27T13:50:16;30.28;40.28
75010;DHT22;63564;46.840;18.336;2023-05-27T13:53:16;29.71;41.49
75010;DHT22;63564;46.840;18.336;2023-05-27T13:56:17;29.79;39.95
75010;DHT22;63564;46.840;18.336;2023-05-27T13:59:17;30.31;38.90
75010;DHT22;63564;46.840;18.336;2023-05-27T14:02:18;29.98;39.65
75010;DHT22;63564;46.840;18.336;2023-05-27T14:05:18;30.82;38.01
75010;DHT22;63564;46.840;18.336;2023-05-27T14:08:18;29.48;40.80
75010;DHT22;63564;46.840;18.336;2023-05-27T14:11:19;31.23;37.24
75010;DHT22;63564;46.840;18.336;2023-05-27T14:14:19;30.96;39.43
75010;DHT22;63564;46.840;18.336;2023-05-27T14:17:19;31.54;37.66
75010;DHT22;63564;46.840;18.336;2023-05-27T14:20:20;31.68;36.17
75010;DHT22;63564;46.840;18.336;2023-05-27T14:23:21;30.45;39.88
75010;DHT22;63564;46.840;18.336;2023-05-27T14:26:21;29.54;41.22
75010;DHT22;63564;46.840;18.336;2023-05-27T14:29:22;28.20;42.04
75010;DHT22;63564;46.840;18.336;2023-05-27T14:32:22;29.34;40.79
75010;DHT22;63564;46.840;18.336;2023-05-27T14:35:22;30.03;39.02
75010;DHT22;63564;46.840;18.336;2023-05-27T14:38:23;29.51;41.47
75010;DHT22;63564;46.840;18.336;2023-05-27T14:41:23;28.97;42.49
75010;DHT22;63564;46.840;18.336;2023-05-27T14:44:23;27.77;44.68
75010;DHT22;63564;46.840;18.336;2023-05-27T14:47:24;26.73;46.45
75010;DHT22;63564;46.840;18.336;2023-05-27T14:50:24;26.97;44.15
75010;DHT22;63564;46.840;18.336;2023-05-27T14:53:25;26.15;47.54
75010;DHT22;63564;46.840;18.336;2023-05-27T14:56:25;26.51;47.46
75010;DHT22;63564;46.840;18.336;2023-05-27T14:59:25;26.16;48.48
75010;DHT22;63564;46.840;18.336;2023-05-27T15:02:26;25.80;47.98
75010;DHT22;63564;46.840;18.336;2023-05-27T15:05:26;25.16;50.90
75010;DHT22;63564;46.840;18.336;2023-05-27T15:08:27;25.24;49.71
75010;DHT22;63564;46.840;18.336;2023-05-27T15:11:27;25.20;50.86
75010;DHT22;63564;46.840;18.336;2023-05-27T15:14:28;25.36;51.54
75010;DHT22;63564;46.840;18.336;2023-05-27T15:17:28;25.18;49.64
75010;DHT22;63564;46.840;18.336;2023-05-27T15:20:28;25.03;50.74
75010;DHT22;63564;46.840;18.336;2023-05-27T15:23:29;25.20;49.86
75010;DHT22;63564;46.840;18.336;2023-05-27T15:26:29;24.79;51.31
75010;DHT22;63564;46.840;18.336;2023-05-27T15:29:30;24.72;50.42
75010;DHT22;63564;46.840;18.336;2023-05-27T15:32:30;24.79;50.45
75010;DHT22;63564;46.840;18.336;2023-05-27T15:35:32;24.88;49.48
75010;DHT22;63564;46.840;18.336;2023-05-27T15:38:32;24.65;49.75
75010;DHT22;63564;46.840;18.336;2023-05-27T15:41:32;24.55;50.88
75010;DHT22;63564;46.840;18.336;2023-05-27T15:44:33;24.62;52.45
75010;DHT22;63564;46.840;18.336;2023-05-27T15:47:34;24.53;50.56
75010;DHT22;63564;46.840;18.336;2023-05-27T15:50:39;24.60;50.40
75010;DHT22;63564;46.840;18.336;2023-05-27T15:53:40;24.40;51.03
75010;DHT22;63564;46.840;18.336;2023-05-27T15:56:40;24.31;50.61
75010;DHT22;63564;46.840;18.336;2023-05-27T15:59:41;24.28;50.99
75010;DHT22;63564;46.840;18.336;2023-05-27T16:02:42;24.20;51.04
75010;DHT22;63564;46.840;18.336;2023-05-27T16:05:42;24.16;51.82
75010;DHT22;63564;46.840;18.336;2023-05-27T16:08:43;24.18;51.99
75010;DHT22;63564;46.840;18.336;2023-05-27T16:11:43;24.13;51.92
75010;DHT22;63564;46.840;18.336;2023-05-27T16:14:43;23.99;52.71
75010;DHT22;63564;46.840;18.336;2023-05-27T16:17:44;24.03;53.42
75010;DHT22;63564;46.840;18.336;2023-05-27T16:20:45;24.09;53.03
75010;DHT22;63564;46.840;18.336;2023-05-27T16:23:46;24.02;52.93
75010;DHT22;63564;46.840;18.336;2023-05-27T16:26:46;23.95;52.40
75010;DHT22;63564;46.840;18.336;2023-05-27T16:29:47;23.89;53.43
75010;DHT22;63564;46.840;18.336;2023-05-27T16:32:47;23.82;53.45
75010;DHT22;63564;46.840;18.336;2023-05-27T16:35:50;23.68;52.98
75010;DHT22;63564;46.840;18.336;2023-05-27T16:38:50;23.61;53.05
75010;DHT22;63564;46.840;18.336;2023-05-27T16:41:51;23.38;52.00
75010;DHT22;63564;46.840;18.336;2023-05-27T16:44:51;23.27;53.02
75010;DHT22;63564;46.840;18.336;2023-05-27T16:47:54;23.21;53.33
75010;DHT22;63564;46.840;18.336;2023-05-27T16:50:54;23.13;52.98
75010;DHT22;63564;46.840;18.336;2023-05-27T16:53:55;23.07;53.57
75010;DHT22;63564;46.840;18.336;2023-05-27T16:56:55;22.93;53.27
75010;DHT22;63564;46.840;18.336;2023-05-27T16:59:56;22.99;53.86
75010;DHT22;63564;46.840;18.336;2023-05-27T17:02:56;22.92;53.38
75010;DHT22;63564;46.840;18.336;2023-05-27T17:05:56;22.80;52.76
75010;DHT22;63564;46.840;18.336;2023-05-27T17:08:58;22.72;52.68
75010;DHT22;63564;46.840;18.336;2023-05-27T17:11:59;22.67;53.28
75010;DHT22;63564;46.840;18.336;2023-05-27T17:15:00;22.53;54.07
75010;DHT22;63564;46.840;18.336;2023-05-27T17:18:01;22.46;53.31
75010;DHT22;63564;46.840;18.336;2023-05-27T17:21:01;22.38;54.18
75010;DHT22;63564;46.840;18.336;2023-05-27T17:24:02;22.32;52.87
75010;DHT22;63564;46.840;18.336;2023-05-27T17:27:07;22.24;52.98
75010;DHT22;63564;46.840;18.336;2023-05-27T17:30:10;22.15;53.28
75010;DHT22;63564;46.840;18.336;2023-05-27T17:33:11;22.01;54.01
75010;DHT22;63564;46.840;18.336;2023-05-27T17:36:11;21.93;54.91
75010;DHT22;63564;46.840;18.336;2023-05-27T17:39:12;21.86;54.55
75010;DHT22;63564;46.840;18.336;2023-05-27T17:42:12;21.80;54.22
75010;DHT22;63564;46.840;18.336;2023-05-27T17:45:13;21.69;54.38
75010;DHT22;63564;46.840;18.336;2023-05-27T17:48:14;21.60;55.24
75010;DHT22;63564;46.840;18.336;2023-05-27T17:51:14;21.47;54.65
75010;DHT22;63564;46.840;18.336;2023-05-27T17:54:15;21.36;55.34
75010;DHT22;63564;46.840;18.336;2023-05-27T17:57:15;21.32;55.27
75010;DHT22;63564;46.840;18.336;2023-05-27T18:00:15;21.18;55.75
75010;DHT22;63564;46.840;18.336;2023-05-27T18:03:16;21.08;56.31
75010;DHT22;63564;46.840;18.336;2023-05-27T18:06:16;20.99;56.97
75010;DHT22;63564;46.840;18.336;2023-05-27T18:09:16;20.90;57.28
75010;DHT22;63564;46.840;18.336;2023-05-27T18:12:17;20.63;59.03
75010;DHT22;63564;46.840;18.336;2023-05-27T18:15:17;20.57;58.80
75010;DHT22;63564;46.840;18.336;2023-05-27T18:18:18;20.50;58.95
75010;DHT22;63564;46.840;18.336;2023-05-27T18:21:18;20.40;59.50
75010;DHT22;63564;46.840;18.336;2023-05-27T18:24:20;20.30;59.93
75010;DHT22;63564;46.840;18.336;2023-05-27T18:27:20;20.21;60.34
75010;DHT22;63564;46.840;18.336;2023-05-27T18:30:21;20.06;60.91
75010;DHT22;63564;46.840;18.336;2023-05-27T18:33:23;19.95;61.57
75010;DHT22;63564;46.840;18.336;2023-05-27T18:36:24;19.85;61.45
75010;DHT22;63564;46.840;18.336;2023-05-27T18:39:24;19.71;61.76
75010;DHT22;63564;46.840;18.336;2023-05-27T18:42:24;19.60;62.19
75010;DHT22;63564;46.840;18.336;2023-05-27T18:45:48;19.54;62.52
75010;DHT22;63564;46.840;18.336;2023-05-27T18:48:49;19.51;62.41
75010;DHT22;63564;46.840;18.336;2023-05-27T18:51:50;19.43;62.27
75010;DHT22;63564;46.840;18.336;2023-05-27T18:54:51;19.41;62.51